sensor_id;sensor_type;location;lat;lon;timestamp;P1;durP1;ratioP1;P2;durP2;ratioP2
59938;SDS011;45801;51.810;19.444;2023-02-22T00:00:41;16.30;;;5.30;;
59938;SDS011;45801;51.810;19.444;2023-02-22T00:03:21;15.80;;;6.20;;
59938;SDS011;45801;51.810;19.444;2023-02-22T00:05:53;14.50;;;6.10;;
59938;SDS011;45801;51.810;19.444;2023-02-22T00:08:24;20.30;;;6.50;;
59938;SDS011;45801;51.810;19.444;2023-02-22T00:13:25;19.50;;;6.00;;
59938;SDS011;45801;51.810;19.444;2023-02-22T00:15:56;18.00;;;6.30;;
59938;SDS011;45801;51.810;19.444;2023-02-22T00:18:24;16.80;;;6.40;;
59938;SDS011;45801;51.810;19.444;2023-02-22T00:20:54;19.90;;;7.80;;
59938;SDS011;45801;51.810;19.444;2023-02-22T00:23:25;17.60;;;7.20;;
59938;SDS011;45801;51.810;19.444;2023-02-22T00:25:55;19.30;;;6.30;;
59938;SDS011;45801;51.810;19.444;2023-02-22T00:28:22;24.20;;;7.50;;
59938;SDS011;45801;51.810;19.444;2023-02-22T00:30:49;25.90;;;7.20;;
59938;SDS011;45801;51.810;19.444;2023-02-22T00:33:16;17.40;;;6.20;;
59938;SDS011;45801;51.810;19.444;2023-02-22T00:35:43;21.90;;;6.70;;
59938;SDS011;45801;51.810;19.444;2023-02-22T00:38:14;21.30;;;7.00;;
59938;SDS011;45801;51.810;19.444;2023-02-22T00:40:41;20.00;;;6.60;;
59938;SDS011;45801;51.810;19.444;2023-02-22T00:43:08;21.60;;;7.10;;
59938;SDS011;45801;51.810;19.444;2023-02-22T00:45:35;25.00;;;7.30;;
59938;SDS011;45801;51.810;19.444;2023-02-22T00:48:03;18.20;;;6.00;;
59938;SDS011;45801;51.810;19.444;2023-02-22T00:50:31;21.70;;;6.50;;
59938;SDS011;45801;51.810;19.444;2023-02-22T00:52:59;17.40;;;6.50;;
59938;SDS011;45801;51.810;19.444;2023-02-22T00:55:28;18.60;;;6.50;;
59938;SDS011;45801;51.810;19.444;2023-02-22T00:57:57;20.80;;;7.00;;
59938;SDS011;45801;51.810;19.444;2023-02-22T01:00:25;17.10;;;6.20;;
59938;SDS011;45801;51.810;19.444;2023-02-22T01:02:55;18.80;;;6.00;;
59938;SDS011;45801;51.810;19.444;2023-02-22T01:05:25;20.60;;;5.90;;
59938;SDS011;45801;51.810;19.444;2023-02-22T01:07:54;23.10;;;7.50;;
59938;SDS011;45801;51.810;19.444;2023-02-22T01:10:22;24.70;;;7.10;;
59938;SDS011;45801;51.810;19.444;2023-02-22T01:12:50;20.80;;;7.90;;
59938;SDS011;45801;51.810;19.444;2023-02-22T01:15:20;20.80;;;6.10;;
59938;SDS011;45801;51.810;19.444;2023-02-22T01:17:50;19.70;;;6.90;;
59938;SDS011;45801;51.810;19.444;2023-02-22T01:20:20;24.10;;;6.80;;
59938;SDS011;45801;51.810;19.444;2023-02-22T01:22:48;22.70;;;8.00;;
59938;SDS011;45801;51.810;19.444;2023-02-22T01:25:19;25.90;;;8.50;;
59938;SDS011;45801;51.810;19.444;2023-02-22T01:27:48;22.20;;;7.90;;
59938;SDS011;45801;51.810;19.444;2023-02-22T01:30:20;17.40;;;6.80;;
59938;SDS011;45801;51.810;19.444;2023-02-22T01:32:49;19.30;;;7.20;;
59938;SDS011;45801;51.810;19.444;2023-02-22T01:35:23;18.00;;;6.50;;
59938;SDS011;45801;51.810;19.444;2023-02-22T01:37:53;17.50;;;6.10;;
59938;SDS011;45801;51.810;19.444;2023-02-22T01:40:33;17.60;;;5.90;;
59938;SDS011;45801;51.810;19.444;2023-02-22T01:43:12;14.20;;;5.60;;
59938;SDS011;45801;51.810;19.444;2023-02-22T01:48:34;15.80;;;5.70;;
59938;SDS011;45801;51.810;19.444;2023-02-22T01:51:08;23.30;;;5.60;;
59938;SDS011;45801;51.810;19.444;2023-02-22T01:53:42;15.90;;;5.50;;
59938;SDS011;45801;51.810;19.444;2023-02-22T01:56:15;16.90;;;5.80;;
59938;SDS011;45801;51.810;19.444;2023-02-22T01:58:44;19.60;;;6.50;;
59938;SDS011;45801;51.810;19.444;2023-02-22T02:01:14;19.60;;;6.30;;
59938;SDS011;45801;51.810;19.444;2023-02-22T02:03:43;20.00;;;5.70;;
59938;SDS011;45801;51.810;19.444;2023-02-22T02:06:12;19.30;;;6.00;;
59938;SDS011;45801;51.810;19.444;2023-02-22T02:11:19;19.00;;;5.50;;
59938;SDS011;45801;51.810;19.444;2023-02-22T02:13:50;19.40;;;5.90;;
59938;SDS011;45801;51.810;19.444;2023-02-22T02:16:22;16.10;;;7.30;;
59938;SDS011;45801;51.810;19.444;2023-02-22T02:18:52;16.40;;;5.40;;
59938;SDS011;45801;51.810;19.444;2023-02-22T02:21:39;15.30;;;6.10;;
59938;SDS011;45801;51.810;19.444;2023-02-22T02:35:06;18.00;;;6.00;;
59938;SDS011;45801;51.810;19.444;2023-02-22T02:37:50;18.60;;;5.40;;
59938;SDS011;45801;51.810;19.444;2023-02-22T02:46:04;12.70;;;3.90;;
59938;SDS011;45801;51.810;19.444;2023-02-22T02:48:34;19.30;;;5.50;;
59938;SDS011;45801;51.810;19.444;2023-02-22T02:51:04;20.70;;;6.40;;
59938;SDS011;45801;51.810;19.444;2023-02-22T02:53:36;15.20;;;4.60;;
59938;SDS011;45801;51.810;19.444;2023-02-22T02:56:05;15.90;;;4.40;;
59938;SDS011;45801;51.810;19.444;2023-02-22T02:58:41;16.20;;;4.90;;
59938;SDS011;45801;51.810;19.444;2023-02-22T03:01:10;16.10;;;5.10;;
59938;SDS011;45801;51.810;19.444;2023-02-22T03:03:50;18.00;;;5.40;;
59938;SDS011;45801;51.810;19.444;2023-02-22T03:06:48;14.60;;;5.40;;
59938;SDS011;45801;51.810;19.444;2023-02-22T03:12:38;14.80;;;5.20;;
59938;SDS011;45801;51.810;19.444;2023-02-22T03:17:50;18.60;;;5.70;;
59938;SDS011;45801;51.810;19.444;2023-02-22T03:20:21;11.90;;;5.00;;
59938;SDS011;45801;51.810;19.444;2023-02-22T03:23:02;16.80;;;6.00;;
59938;SDS011;45801;51.810;19.444;2023-02-22T03:25:36;16.70;;;5.20;;
59938;SDS011;45801;51.810;19.444;2023-02-22T03:28:09;17.70;;;6.10;;
59938;SDS011;45801;51.810;19.444;2023-02-22T03:30:41;17.40;;;5.20;;
59938;SDS011;45801;51.810;19.444;2023-02-22T03:33:14;18.00;;;5.90;;
59938;SDS011;45801;51.810;19.444;2023-02-22T03:35:48;16.50;;;5.90;;
59938;SDS011;45801;51.810;19.444;2023-02-22T03:38:22;15.40;;;5.90;;
59938;SDS011;45801;51.810;19.444;2023-02-22T03:40:52;18.20;;;5.80;;
59938;SDS011;45801;51.810;19.444;2023-02-22T03:43:25;20.80;;;7.90;;
59938;SDS011;45801;51.810;19.444;2023-02-22T03:45:56;22.20;;;8.90;;
59938;SDS011;45801;51.810;19.444;2023-02-22T03:51:19;19.10;;;7.30;;
59938;SDS011;45801;51.810;19.444;2023-02-22T03:53:46;21.80;;;8.30;;
59938;SDS011;45801;51.810;19.444;2023-02-22T03:56:17;20.50;;;7.00;;
59938;SDS011;45801;51.810;19.444;2023-02-22T03:58:48;23.00;;;8.30;;
59938;SDS011;45801;51.810;19.444;2023-02-22T04:01:16;18.40;;;7.50;;
59938;SDS011;45801;51.810;19.444;2023-02-22T04:03:43;15.40;;;5.70;;
59938;SDS011;45801;51.810;19.444;2023-02-22T04:06:09;19.10;;;7.10;;
59938;SDS011;45801;51.810;19.444;2023-02-22T04:08:36;15.00;;;6.90;;
59938;SDS011;45801;51.810;19.444;2023-02-22T04:11:03;16.30;;;7.50;;
59938;SDS011;45801;51.810;19.444;2023-02-22T04:13:29;19.60;;;8.50;;
59938;SDS011;45801;51.810;19.444;2023-02-22T04:15:56;19.70;;;6.80;;
59938;SDS011;45801;51.810;19.444;2023-02-22T04:18:23;16.40;;;7.50;;
59938;SDS011;45801;51.810;19.444;2023-02-22T04:20:49;20.90;;;8.30;;
59938;SDS011;45801;51.810;19.444;2023-02-22T04:23:17;17.30;;;7.30;;
59938;SDS011;45801;51.810;19.444;2023-02-22T04:25:44;18.60;;;7.70;;
59938;SDS011;45801;51.810;19.444;2023-02-22T04:28:11;19.80;;;8.30;;
59938;SDS011;45801;51.810;19.444;2023-02-22T04:30:37;20.40;;;7.50;;
59938;SDS011;45801;51.810;19.444;2023-02-22T04:33:04;16.70;;;6.80;;
59938;SDS011;45801;51.810;19.444;2023-02-22T04:35:30;17.70;;;6.10;;
59938;SDS011;45801;51.810;19.444;2023-02-22T04:37:57;19.30;;;6.70;;
59938;SDS011;45801;51.810;19.444;2023-02-22T04:40:23;16.50;;;6.80;;
59938;SDS011;45801;51.810;19.444;2023-02-22T04:42:50;17.00;;;6.30;;
59938;SDS011;45801;51.810;19.444;2023-02-22T04:45:16;19.40;;;6.80;;
59938;SDS011;45801;51.810;19.444;2023-02-22T04:47:43;17.50;;;6.60;;
59938;SDS011;45801;51.810;19.444;2023-02-22T04:50:10;22.10;;;8.20;;
59938;SDS011;45801;51.810;19.444;2023-02-22T04:52:37;21.80;;;7.70;;
59938;SDS011;45801;51.810;19.444;2023-02-22T04:55:04;19.20;;;7.60;;
59938;SDS011;45801;51.810;19.444;2023-02-22T04:57:31;17.00;;;6.40;;
59938;SDS011;45801;51.810;19.444;2023-02-22T04:59:58;21.00;;;6.50;;
59938;SDS011;45801;51.810;19.444;2023-02-22T05:02:24;19.50;;;8.20;;
59938;SDS011;45801;51.810;19.444;2023-02-22T05:04:51;19.10;;;7.30;;
59938;SDS011;45801;51.810;19.444;2023-02-22T05:07:18;16.50;;;6.60;;
59938;SDS011;45801;51.810;19.444;2023-02-22T05:09:45;23.50;;;8.20;;
59938;SDS011;45801;51.810;19.444;2023-02-22T05:12:12;17.60;;;7.30;;
59938;SDS011;45801;51.810;19.444;2023-02-22T05:14:38;20.20;;;6.50;;
59938;SDS011;45801;51.810;19.444;2023-02-22T05:17:05;19.80;;;7.70;;
59938;SDS011;45801;51.810;19.444;2023-02-22T05:19:31;20.20;;;7.20;;
59938;SDS011;45801;51.810;19.444;2023-02-22T05:21:58;19.30;;;6.60;;
59938;SDS011;45801;51.810;19.444;2023-02-22T05:24:25;18.20;;;6.60;;
59938;SDS011;45801;51.810;19.444;2023-02-22T05:26:51;16.00;;;7.00;;
59938;SDS011;45801;51.810;19.444;2023-02-22T05:29:18;21.90;;;7.50;;
59938;SDS011;45801;51.810;19.444;2023-02-22T05:31:46;23.60;;;11.40;;
59938;SDS011;45801;51.810;19.444;2023-02-22T05:34:13;36.20;;;19.40;;
59938;SDS011;45801;51.810;19.444;2023-02-22T05:36:40;29.60;;;17.30;;
59938;SDS011;45801;51.810;19.444;2023-02-22T05:39:06;32.90;;;16.80;;
59938;SDS011;45801;51.810;19.444;2023-02-22T05:41:33;19.20;;;10.10;;
59938;SDS011;45801;51.810;19.444;2023-02-22T05:43:59;19.70;;;9.90;;
59938;SDS011;45801;51.810;19.444;2023-02-22T05:46:28;22.70;;;10.70;;
59938;SDS011;45801;51.810;19.444;2023-02-22T05:48:54;20.00;;;8.80;;
59938;SDS011;45801;51.810;19.444;2023-02-22T05:51:21;15.90;;;7.90;;
59938;SDS011;45801;51.810;19.444;2023-02-22T05:53:47;17.10;;;7.10;;
59938;SDS011;45801;51.810;19.444;2023-02-22T05:56:23;16.30;;;7.60;;
59938;SDS011;45801;51.810;19.444;2023-02-22T05:58:51;12.40;;;5.50;;
59938;SDS011;45801;51.810;19.444;2023-02-22T06:01:19;15.40;;;6.30;;
59938;SDS011;45801;51.810;19.444;2023-02-22T06:03:47;14.60;;;5.70;;
59938;SDS011;45801;51.810;19.444;2023-02-22T06:06:15;15.40;;;6.50;;
59938;SDS011;45801;51.810;19.444;2023-02-22T06:08:42;12.00;;;5.90;;
59938;SDS011;45801;51.810;19.444;2023-02-22T06:11:09;14.90;;;5.60;;
59938;SDS011;45801;51.810;19.444;2023-02-22T06:13:36;16.10;;;6.20;;
59938;SDS011;45801;51.810;19.444;2023-02-22T06:16:04;16.20;;;6.40;;
59938;SDS011;45801;51.810;19.444;2023-02-22T06:18:31;15.90;;;7.60;;
59938;SDS011;45801;51.810;19.444;2023-02-22T06:20:58;17.50;;;6.90;;
59938;SDS011;45801;51.810;19.444;2023-02-22T06:23:25;18.60;;;7.20;;
59938;SDS011;45801;51.810;19.444;2023-02-22T06:25:52;16.90;;;6.70;;
59938;SDS011;45801;51.810;19.444;2023-02-22T06:28:18;16.00;;;7.20;;
59938;SDS011;45801;51.810;19.444;2023-02-22T06:30:45;16.00;;;6.10;;
59938;SDS011;45801;51.810;19.444;2023-02-22T06:33:13;15.50;;;5.80;;
59938;SDS011;45801;51.810;19.444;2023-02-22T06:35:40;13.70;;;6.30;;
59938;SDS011;45801;51.810;19.444;2023-02-22T06:38:06;14.20;;;9.10;;
59938;SDS011;45801;51.810;19.444;2023-02-22T06:40:33;21.90;;;9.20;;
59938;SDS011;45801;51.810;19.444;2023-02-22T06:42:59;18.80;;;10.30;;
59938;SDS011;45801;51.810;19.444;2023-02-22T06:45:26;22.10;;;10.60;;
59938;SDS011;45801;51.810;19.444;2023-02-22T06:47:52;21.70;;;11.20;;
59938;SDS011;45801;51.810;19.444;2023-02-22T06:50:22;22.20;;;10.30;;
59938;SDS011;45801;51.810;19.444;2023-02-22T06:52:51;21.90;;;10.30;;
59938;SDS011;45801;51.810;19.444;2023-02-22T06:55:18;17.30;;;8.90;;
59938;SDS011;45801;51.810;19.444;2023-02-22T07:00:17;13.40;;;6.40;;
59938;SDS011;45801;51.810;19.444;2023-02-22T07:02:45;17.30;;;7.70;;
59938;SDS011;45801;51.810;19.444;2023-02-22T07:05:16;17.30;;;8.60;;
59938;SDS011;45801;51.810;19.444;2023-02-22T07:07:46;17.40;;;7.10;;
59938;SDS011;45801;51.810;19.444;2023-02-22T07:10:22;14.80;;;8.50;;
59938;SDS011;45801;51.810;19.444;2023-02-22T07:12:52;14.90;;;8.40;;
59938;SDS011;45801;51.810;19.444;2023-02-22T07:15:19;17.30;;;7.60;;
59938;SDS011;45801;51.810;19.444;2023-02-22T07:17:49;15.90;;;7.00;;
59938;SDS011;45801;51.810;19.444;2023-02-22T07:20:17;14.30;;;6.40;;
59938;SDS011;45801;51.810;19.444;2023-02-22T07:22:46;12.10;;;5.50;;
59938;SDS011;45801;51.810;19.444;2023-02-22T07:25:13;16.40;;;6.30;;
59938;SDS011;45801;51.810;19.444;2023-02-22T07:27:40;13.20;;;5.80;;
59938;SDS011;45801;51.810;19.444;2023-02-22T07:30:14;12.30;;;5.10;;
59938;SDS011;45801;51.810;19.444;2023-02-22T07:32:43;10.10;;;4.50;;
59938;SDS011;45801;51.810;19.444;2023-02-22T07:35:22;11.80;;;4.50;;
59938;SDS011;45801;51.810;19.444;2023-02-22T07:37:50;12.90;;;6.10;;
59938;SDS011;45801;51.810;19.444;2023-02-22T07:40:17;12.20;;;4.90;;
59938;SDS011;45801;51.810;19.444;2023-02-22T07:45:23;13.40;;;5.80;;
59938;SDS011;45801;51.810;19.444;2023-02-22T07:47:52;9.90;;;4.30;;
59938;SDS011;45801;51.810;19.444;2023-02-22T07:50:19;9.70;;;3.60;;
59938;SDS011;45801;51.810;19.444;2023-02-22T07:52:47;7.70;;;2.80;;
59938;SDS011;45801;51.810;19.444;2023-02-22T07:55:16;10.80;;;3.70;;
59938;SDS011;45801;51.810;19.444;2023-02-22T07:57:45;10.10;;;4.20;;
59938;SDS011;45801;51.810;19.444;2023-02-22T08:00:12;8.90;;;2.70;;
59938;SDS011;45801;51.810;19.444;2023-02-22T08:02:41;11.60;;;3.60;;
59938;SDS011;45801;51.810;19.444;2023-02-22T08:05:09;12.50;;;4.70;;
59938;SDS011;45801;51.810;19.444;2023-02-22T08:07:36;10.00;;;4.20;;
59938;SDS011;45801;51.810;19.444;2023-02-22T08:10:04;11.60;;;3.90;;
59938;SDS011;45801;51.810;19.444;2023-02-22T08:12:33;10.70;;;4.10;;
59938;SDS011;45801;51.810;19.444;2023-02-22T08:15:06;10.40;;;4.20;;
59938;SDS011;45801;51.810;19.444;2023-02-22T08:20:00;9.10;;;4.90;;
59938;SDS011;45801;51.810;19.444;2023-02-22T08:22:27;7.30;;;3.00;;
59938;SDS011;45801;51.810;19.444;2023-02-22T08:24:54;9.60;;;3.70;;
59938;SDS011;45801;51.810;19.444;2023-02-22T08:27:24;9.50;;;3.20;;
59938;SDS011;45801;51.810;19.444;2023-02-22T08:29:52;9.60;;;3.50;;
59938;SDS011;45801;51.810;19.444;2023-02-22T08:32:19;10.20;;;3.70;;
59938;SDS011;45801;51.810;19.444;2023-02-22T08:34:46;10.90;;;4.20;;
59938;SDS011;45801;51.810;19.444;2023-02-22T08:37:13;10.40;;;4.10;;
59938;SDS011;45801;51.810;19.444;2023-02-22T08:39:41;8.40;;;4.30;;
59938;SDS011;45801;51.810;19.444;2023-02-22T08:42:08;9.70;;;4.50;;
59938;SDS011;45801;51.810;19.444;2023-02-22T08:44:35;11.60;;;4.60;;
59938;SDS011;45801;51.810;19.444;2023-02-22T08:47:04;12.50;;;4.40;;
59938;SDS011;45801;51.810;19.444;2023-02-22T08:49:32;10.10;;;4.20;;
59938;SDS011;45801;51.810;19.444;2023-02-22T08:51:59;9.70;;;3.80;;
59938;SDS011;45801;51.810;19.444;2023-02-22T08:54:26;9.60;;;3.70;;
59938;SDS011;45801;51.810;19.444;2023-02-22T08:56:53;8.50;;;4.00;;
59938;SDS011;45801;51.810;19.444;2023-02-22T08:59:20;11.50;;;5.00;;
59938;SDS011;45801;51.810;19.444;2023-02-22T09:01:47;11.00;;;3.90;;
59938;SDS011;45801;51.810;19.444;2023-02-22T09:04:13;10.70;;;3.80;;
59938;SDS011;45801;51.810;19.444;2023-02-22T09:06:40;9.60;;;4.60;;
59938;SDS011;45801;51.810;19.444;2023-02-22T09:09:07;13.70;;;5.20;;
59938;SDS011;45801;51.810;19.444;2023-02-22T09:11:34;9.60;;;4.60;;
59938;SDS011;45801;51.810;19.444;2023-02-22T09:14:00;10.40;;;4.60;;
59938;SDS011;45801;51.810;19.444;2023-02-22T09:16:27;9.40;;;5.10;;
59938;SDS011;45801;51.810;19.444;2023-02-22T09:18:54;12.30;;;4.20;;
59938;SDS011;45801;51.810;19.444;2023-02-22T09:21:22;9.60;;;4.30;;
59938;SDS011;45801;51.810;19.444;2023-02-22T09:23:48;9.20;;;3.80;;
59938;SDS011;45801;51.810;19.444;2023-02-22T09:26:14;8.60;;;3.20;;
59938;SDS011;45801;51.810;19.444;2023-02-22T09:28:41;7.90;;;3.30;;
59938;SDS011;45801;51.810;19.444;2023-02-22T09:31:07;7.80;;;3.20;;
59938;SDS011;45801;51.810;19.444;2023-02-22T09:33:34;8.30;;;3.20;;
59938;SDS011;45801;51.810;19.444;2023-02-22T09:36:00;6.90;;;2.80;;
59938;SDS011;45801;51.810;19.444;2023-02-22T09:38:27;7.80;;;2.80;;
59938;SDS011;45801;51.810;19.444;2023-02-22T09:41:17;8.40;;;3.40;;
59938;SDS011;45801;51.810;19.444;2023-02-22T09:46:45;7.60;;;3.10;;
59938;SDS011;45801;51.810;19.444;2023-02-22T09:51:41;8.00;;;2.10;;
59938;SDS011;45801;51.810;19.444;2023-02-22T09:56:55;8.80;;;3.10;;
59938;SDS011;45801;51.810;19.444;2023-02-22T09:59:29;8.60;;;2.30;;
59938;SDS011;45801;51.810;19.444;2023-02-22T10:02:01;7.30;;;2.50;;
59938;SDS011;45801;51.810;19.444;2023-02-22T10:04:50;6.30;;;2.50;;
59938;SDS011;45801;51.810;19.444;2023-02-22T10:07:30;6.80;;;2.20;;
59938;SDS011;45801;51.810;19.444;2023-02-22T10:10:02;7.00;;;2.30;;
59938;SDS011;45801;51.810;19.444;2023-02-22T10:12:49;5.60;;;1.90;;
59938;SDS011;45801;51.810;19.444;2023-02-22T10:15:28;6.70;;;2.50;;
59938;SDS011;45801;51.810;19.444;2023-02-22T10:18:25;7.10;;;2.60;;
59938;SDS011;45801;51.810;19.444;2023-02-22T10:26:51;7.40;;;2.80;;
59938;SDS011;45801;51.810;19.444;2023-02-22T10:29:29;5.30;;;2.10;;
59938;SDS011;45801;51.810;19.444;2023-02-22T10:32:03;6.40;;;2.10;;
59938;SDS011;45801;51.810;19.444;2023-02-22T10:34:38;6.80;;;2.20;;
59938;SDS011;45801;51.810;19.444;2023-02-22T10:37:20;6.10;;;2.10;;
59938;SDS011;45801;51.810;19.444;2023-02-22T10:39:52;7.40;;;2.70;;
59938;SDS011;45801;51.810;19.444;2023-02-22T10:42:25;7.70;;;2.70;;
59938;SDS011;45801;51.810;19.444;2023-02-22T10:44:53;8.70;;;2.40;;
59938;SDS011;45801;51.810;19.444;2023-02-22T10:47:20;7.50;;;3.00;;
59938;SDS011;45801;51.810;19.444;2023-02-22T10:49:49;6.90;;;2.80;;
59938;SDS011;45801;51.810;19.444;2023-02-22T10:52:28;6.70;;;2.50;;
59938;SDS011;45801;51.810;19.444;2023-02-22T10:54:57;9.30;;;3.50;;
59938;SDS011;45801;51.810;19.444;2023-02-22T10:57:27;6.80;;;2.60;;
59938;SDS011;45801;51.810;19.444;2023-02-22T10:59:57;7.00;;;2.40;;
59938;SDS011;45801;51.810;19.444;2023-02-22T11:02:27;9.10;;;3.30;;
59938;SDS011;45801;51.810;19.444;2023-02-22T11:04:58;6.90;;;2.20;;
59938;SDS011;45801;51.810;19.444;2023-02-22T11:12:30;5.00;;;1.80;;
59938;SDS011;45801;51.810;19.444;2023-02-22T11:17:50;6.90;;;2.80;;
59938;SDS011;45801;51.810;19.444;2023-02-22T11:20:26;7.00;;;2.60;;
59938;SDS011;45801;51.810;19.444;2023-02-22T11:23:00;7.70;;;3.40;;
59938;SDS011;45801;51.810;19.444;2023-02-22T11:25:33;9.60;;;3.90;;
59938;SDS011;45801;51.810;19.444;2023-02-22T11:28:06;7.70;;;3.40;;
59938;SDS011;45801;51.810;19.444;2023-02-22T11:30:33;8.80;;;3.60;;
59938;SDS011;45801;51.810;19.444;2023-02-22T11:33:20;8.00;;;3.40;;
59938;SDS011;45801;51.810;19.444;2023-02-22T11:38:22;10.20;;;4.40;;
59938;SDS011;45801;51.810;19.444;2023-02-22T11:41:16;8.10;;;3.60;;
59938;SDS011;45801;51.810;19.444;2023-02-22T11:43:51;8.40;;;3.50;;
59938;SDS011;45801;51.810;19.444;2023-02-22T11:46:20;8.20;;;4.00;;
59938;SDS011;45801;51.810;19.444;2023-02-22T11:49:09;8.20;;;3.60;;
59938;SDS011;45801;51.810;19.444;2023-02-22T12:00:55;10.40;;;5.60;;
59938;SDS011;45801;51.810;19.444;2023-02-22T12:12:19;10.10;;;5.20;;
59938;SDS011;45801;51.810;19.444;2023-02-22T12:17:32;8.90;;;5.10;;
59938;SDS011;45801;51.810;19.444;2023-02-22T12:20:14;10.70;;;5.70;;
59938;SDS011;45801;51.810;19.444;2023-02-22T12:23:37;10.00;;;5.40;;
59938;SDS011;45801;51.810;19.444;2023-02-22T12:25:39;10.00;;;5.70;;
59938;SDS011;45801;51.810;19.444;2023-02-22T12:28:20;16.40;;;12.20;;
59938;SDS011;45801;51.810;19.444;2023-02-22T12:30:52;13.60;;;9.40;;
59938;SDS011;45801;51.810;19.444;2023-02-22T12:33:30;13.80;;;9.10;;
59938;SDS011;45801;51.810;19.444;2023-02-22T12:36:13;10.60;;;5.60;;
59938;SDS011;45801;51.810;19.444;2023-02-22T12:38:45;12.00;;;7.10;;
59938;SDS011;45801;51.810;19.444;2023-02-22T12:43:59;31.60;;;21.90;;
59938;SDS011;45801;51.810;19.444;2023-02-22T12:46:42;12.90;;;7.40;;
59938;SDS011;45801;51.810;19.444;2023-02-22T12:49:15;10.60;;;5.60;;
59938;SDS011;45801;51.810;19.444;2023-02-22T12:51:50;9.00;;;4.90;;
59938;SDS011;45801;51.810;19.444;2023-02-22T12:54:30;10.00;;;5.10;;
59938;SDS011;45801;51.810;19.444;2023-02-22T12:57:48;8.90;;;4.50;;
59938;SDS011;45801;51.810;19.444;2023-02-22T13:00:21;10.40;;;5.10;;
59938;SDS011;45801;51.810;19.444;2023-02-22T13:02:59;9.40;;;4.70;;
59938;SDS011;45801;51.810;19.444;2023-02-22T13:06:09;11.30;;;5.50;;
59938;SDS011;45801;51.810;19.444;2023-02-22T13:08:50;10.30;;;4.50;;
59938;SDS011;45801;51.810;19.444;2023-02-22T13:11:31;10.00;;;5.00;;
59938;SDS011;45801;51.810;19.444;2023-02-22T13:14:38;9.80;;;5.50;;
59938;SDS011;45801;51.810;19.444;2023-02-22T13:17:23;10.50;;;4.20;;
59938;SDS011;45801;51.810;19.444;2023-02-22T13:20:00;8.20;;;4.40;;
59938;SDS011;45801;51.810;19.444;2023-02-22T13:31:06;10.90;;;4.50;;
59938;SDS011;45801;51.810;19.444;2023-02-22T13:36:53;10.60;;;5.30;;
59938;SDS011;45801;51.810;19.444;2023-02-22T13:39:40;10.40;;;5.60;;
59938;SDS011;45801;51.810;19.444;2023-02-22T13:45:58;9.90;;;5.50;;
59938;SDS011;45801;51.810;19.444;2023-02-22T13:56:14;10.10;;;4.80;;
59938;SDS011;45801;51.810;19.444;2023-02-22T13:58:48;10.40;;;5.10;;
59938;SDS011;45801;51.810;19.444;2023-02-22T14:22:40;10.30;;;5.90;;
59938;SDS011;45801;51.810;19.444;2023-02-22T14:28:04;10.40;;;5.60;;
59938;SDS011;45801;51.810;19.444;2023-02-22T14:30:35;11.20;;;6.20;;
59938;SDS011;45801;51.810;19.444;2023-02-22T14:33:48;10.80;;;5.30;;
59938;SDS011;45801;51.810;19.444;2023-02-22T14:36:09;11.30;;;5.90;;
59938;SDS011;45801;51.810;19.444;2023-02-22T14:38:37;10.70;;;5.50;;
59938;SDS011;45801;51.810;19.444;2023-02-22T14:41:03;11.30;;;6.00;;
59938;SDS011;45801;51.810;19.444;2023-02-22T14:43:31;11.80;;;6.90;;
59938;SDS011;45801;51.810;19.444;2023-02-22T14:46:02;13.00;;;7.50;;
59938;SDS011;45801;51.810;19.444;2023-02-22T14:48:31;13.00;;;8.10;;
59938;SDS011;45801;51.810;19.444;2023-02-22T14:51:26;12.20;;;7.00;;
59938;SDS011;45801;51.810;19.444;2023-02-22T14:54:00;11.90;;;6.50;;
59938;SDS011;45801;51.810;19.444;2023-02-22T14:56:39;11.40;;;5.70;;
59938;SDS011;45801;51.810;19.444;2023-02-22T15:01:43;9.40;;;5.10;;
59938;SDS011;45801;51.810;19.444;2023-02-22T15:06:44;10.50;;;5.70;;
59938;SDS011;45801;51.810;19.444;2023-02-22T15:09:13;10.90;;;5.40;;
59938;SDS011;45801;51.810;19.444;2023-02-22T15:11:50;9.20;;;5.30;;
59938;SDS011;45801;51.810;19.444;2023-02-22T15:14:38;11.00;;;6.00;;
59938;SDS011;45801;51.810;19.444;2023-02-22T15:17:07;10.40;;;5.20;;
59938;SDS011;45801;51.810;19.444;2023-02-22T15:19:39;10.40;;;6.40;;
59938;SDS011;45801;51.810;19.444;2023-02-22T15:22:13;10.90;;;6.30;;
59938;SDS011;45801;51.810;19.444;2023-02-22T15:24:58;9.80;;;6.20;;
59938;SDS011;45801;51.810;19.444;2023-02-22T15:27:29;11.70;;;6.00;;
59938;SDS011;45801;51.810;19.444;2023-02-22T15:30:15;10.10;;;6.00;;
59938;SDS011;45801;51.810;19.444;2023-02-22T15:32:45;10.10;;;5.30;;
59938;SDS011;45801;51.810;19.444;2023-02-22T15:38:02;9.80;;;5.70;;
59938;SDS011;45801;51.810;19.444;2023-02-22T15:40:43;11.30;;;6.10;;
59938;SDS011;45801;51.810;19.444;2023-02-22T15:43:16;12.50;;;6.90;;
59938;SDS011;45801;51.810;19.444;2023-02-22T15:45:44;13.60;;;6.10;;
59938;SDS011;45801;51.810;19.444;2023-02-22T15:48:11;10.90;;;6.50;;
59938;SDS011;45801;51.810;19.444;2023-02-22T15:50:57;12.40;;;6.00;;
59938;SDS011;45801;51.810;19.444;2023-02-22T15:53:27;10.30;;;6.30;;
59938;SDS011;45801;51.810;19.444;2023-02-22T15:55:58;10.40;;;5.60;;
59938;SDS011;45801;51.810;19.444;2023-02-22T15:58:29;10.30;;;5.40;;
59938;SDS011;45801;51.810;19.444;2023-02-22T16:03:32;12.10;;;7.50;;
59938;SDS011;45801;51.810;19.444;2023-02-22T16:06:07;11.50;;;6.50;;
59938;SDS011;45801;51.810;19.444;2023-02-22T16:08:41;9.70;;;5.90;;
59938;SDS011;45801;51.810;19.444;2023-02-22T16:11:25;9.20;;;5.50;;
59938;SDS011;45801;51.810;19.444;2023-02-22T16:14:00;10.40;;;5.90;;
59938;SDS011;45801;51.810;19.444;2023-02-22T16:16:31;11.40;;;6.70;;
59938;SDS011;45801;51.810;19.444;2023-02-22T16:19:40;14.30;;;8.40;;
59938;SDS011;45801;51.810;19.444;2023-02-22T16:22:04;16.30;;;10.70;;
59938;SDS011;45801;51.810;19.444;2023-02-22T16:24:38;15.50;;;10.20;;
59938;SDS011;45801;51.810;19.444;2023-02-22T16:29:38;13.80;;;8.50;;
59938;SDS011;45801;51.810;19.444;2023-02-22T16:32:05;15.70;;;9.70;;
59938;SDS011;45801;51.810;19.444;2023-02-22T16:34:32;14.70;;;10.90;;
59938;SDS011;45801;51.810;19.444;2023-02-22T16:36:59;14.80;;;9.70;;
59938;SDS011;45801;51.810;19.444;2023-02-22T16:39:27;13.20;;;7.90;;
59938;SDS011;45801;51.810;19.444;2023-02-22T16:42:04;12.60;;;7.30;;
59938;SDS011;45801;51.810;19.444;2023-02-22T16:44:35;13.80;;;7.80;;
59938;SDS011;45801;51.810;19.444;2023-02-22T16:47:02;13.90;;;7.10;;
59938;SDS011;45801;51.810;19.444;2023-02-22T16:49:30;14.40;;;7.80;;
59938;SDS011;45801;51.810;19.444;2023-02-22T16:52:00;14.80;;;7.90;;
59938;SDS011;45801;51.810;19.444;2023-02-22T16:54:32;18.50;;;10.90;;
59938;SDS011;45801;51.810;19.444;2023-02-22T16:57:02;17.20;;;9.60;;
59938;SDS011;45801;51.810;19.444;2023-02-22T16:59:37;18.00;;;9.70;;
59938;SDS011;45801;51.810;19.444;2023-02-22T17:02:05;15.30;;;7.30;;
59938;SDS011;45801;51.810;19.444;2023-02-22T17:04:35;14.20;;;7.50;;
59938;SDS011;45801;51.810;19.444;2023-02-22T17:07:02;12.90;;;8.10;;
59938;SDS011;45801;51.810;19.444;2023-02-22T17:09:29;12.20;;;6.90;;
59938;SDS011;45801;51.810;19.444;2023-02-22T17:11:56;17.20;;;9.50;;
59938;SDS011;45801;51.810;19.444;2023-02-22T17:14:23;20.60;;;12.30;;
59938;SDS011;45801;51.810;19.444;2023-02-22T17:17:00;15.50;;;8.20;;